KGEG/GEG METAR and TAF weather

Enter ICAO airport designator
Station Type Date Time Source
KGEG METAR 2019/04/20 21:53 UTC NOAA

KGEG 202153Z 30006KT 10SM FEW030 SCT100 BKN160 BKN200 16/03 A2985 RMK AO2 SLP105 T01560028


Station Type Date Time Source
KGEG Decoded METAR 2019/04/20 21:53 UTC NOAA

SPOKANE INTERNATIONAL AIRPORT , WA, United States (KGEG) 47-37N 117-32W 735M
Apr 20, 2019 - 05:53 PM EDT / 2019.04.20 2153 UTC
Wind: from the WNW (300 degrees) at 7 MPH (6 KT):0
Visibility: 10 mile(s):0
Sky conditions: mostly cloudy
Temperature: 60.1 F (15.6 C)
Dew Point: 37.0 F (2.8 C)
Relative Humidity: 42%
Pressure (altimeter): 29.85 in. Hg (1010 hPa)
ob: KGEG 202153Z 30006KT 10SM FEW030 SCT100 BKN160 BKN200 16/03 A2985 RMK AO2 SLP105 T01560028
cycle: 22

Station Type Date Time Source
KGEG TAF 2019/04/20 19:12 UTC NOAA

TAF
AMD KGEG 201908Z 2019/2118 30006KT P6SM VCSH SCT025 OVC050
FM202000 31010KT P6SM VCSH BKN050 OVC100
FM210000 29009KT P6SM FEW050 BKN200
FM211200 05006KT P6SM FEW050 BKN200

Example: see airport list